Time;durP1;ratioP1;P1;durP2;ratioP2;P2;SDS_P1;SDS_P2;PMS_P1;PMS_P2;Temp;Humidity;BMP_temperature;BMP_pressure;BME280_temperature;BME280_humidity;BME280_pressure;Samples;Min_cycle;Max_cycle;Signal;HPM_P1;HPM_P2
2021/07/08 00:01:14;;;;;;;5.97;3.08;;;18.50;99.90;;;;;;5090708;28;20166;-71
2021/07/08 00:03:40;;;;;;;4.65;2.95;;;18.50;99.90;;;;;;5090719;28;20099;-71
2021/07/08 00:06:05;;;;;;;9.02;3.17;;;18.40;99.90;;;;;;5091112;28;20310;-70
2021/07/08 00:08:31;;;;;;;13.93;5.07;;;18.40;99.90;;;;;;5090368;28;20024;-72
2021/07/08 00:10:57;;;;;;;8.05;3.33;;;18.40;99.90;;;;;;5090722;28;20032;-72
2021/07/08 00:13:28;;;;;;;5.97;2.85;;;18.40;99.90;;;;;;5090661;28;20039;-72
2021/07/08 00:15:54;;;;;;;8.52;3.10;;;18.40;99.90;;;;;;5089541;28;20032;-71
2021/07/08 00:18:22;;;;;;;9.02;3.40;;;18.40;99.90;;;;;;5091265;28;20099;-72
2021/07/08 00:20:48;;;;;;;10.52;4.00;;;18.40;99.90;;;;;;5089573;28;20028;-70
2021/07/08 00:23:18;;;;;;;5.38;3.22;;;18.30;99.90;;;;;;5090376;28;20043;-70
2021/07/08 00:25:45;;;;;;;4.75;3.22;;;18.20;99.90;;;;;;5090527;28;20028;-70
2021/07/08 00:28:15;;;;;;;7.20;3.10;;;18.20;99.90;;;;;;5088588;28;20032;-71
2021/07/08 00:30:44;;;;;;;4.80;3.15;;;18.20;99.90;;;;;;5090702;28;20042;-71
2021/07/08 00:33:10;;;;;;;4.40;3.17;;;18.10;99.90;;;;;;5091178;28;20101;-71
2021/07/08 00:35:37;;;;;;;10.50;3.65;;;18.00;99.90;;;;;;5089680;28;20061;-71
2021/07/08 00:38:04;;;;;;;6.18;3.33;;;18.00;99.90;;;;;;5090195;28;20115;-70
2021/07/08 00:40:30;;;;;;;5.43;3.05;;;17.90;99.90;;;;;;5090091;28;20048;-70
2021/07/08 00:42:56;;;;;;;9.15;3.55;;;18.00;99.90;;;;;;5092646;28;20024;-70
2021/07/08 00:45:22;;;;;;;8.25;3.13;;;18.00;99.90;;;;;;5094863;28;20024;-73
2021/07/08 00:47:50;;;;;;;7.95;3.25;;;17.90;99.90;;;;;;5094251;28;20028;-71
2021/07/08 00:50:18;;;;;;;8.35;3.15;;;17.90;99.90;;;;;;5094385;28;20028;-70
2021/07/08 00:52:44;;;;;;;10.40;2.97;;;17.80;99.90;;;;;;5094370;28;20119;-70
2021/07/08 00:55:10;;;;;;;9.20;2.90;;;17.80;99.90;;;;;;5093293;28;20102;-70
2021/07/08 00:57:39;;;;;;;8.35;2.85;;;17.80;99.90;;;;;;5093155;28;20028;-71
2021/07/08 01:00:05;;;;;;;5.97;3.28;;;17.80;99.90;;;;;;5094829;28;20442;-72
2021/07/08 01:02:31;;;;;;;7.50;3.10;;;17.90;99.90;;;;;;5093780;28;20032;-71
2021/07/08 01:04:58;;;;;;;7.85;3.00;;;18.00;99.90;;;;;;5094063;28;20039;-71
2021/07/08 01:07:25;;;;;;;4.90;2.85;;;18.00;99.90;;;;;;5093919;28;20040;-71
2021/07/08 01:09:51;;;;;;;7.97;3.17;;;17.90;99.90;;;;;;5093853;28;20024;-71
2021/07/08 01:12:19;;;;;;;8.93;3.08;;;17.90;99.90;;;;;;5094227;28;20129;-71
2021/07/08 01:14:46;;;;;;;6.88;2.97;;;17.90;99.90;;;;;;5093682;28;20068;-71
2021/07/08 01:17:11;;;;;;;7.30;2.90;;;17.90;99.90;;;;;;5092611;28;20069;-70
2021/07/08 01:19:40;;;;;;;6.30;3.05;;;17.90;99.90;;;;;;5093436;28;20559;-70
2021/07/08 01:22:06;;;;;;;3.47;3.05;;;17.90;99.90;;;;;;5093747;28;20271;-71
2021/07/08 01:24:32;;;;;;;5.20;2.88;;;17.90;99.90;;;;;;5093629;28;20028;-70
2021/07/08 01:26:58;;;;;;;7.25;3.10;;;18.00;99.90;;;;;;5093931;28;20038;-71
2021/07/08 01:29:24;;;;;;;9.88;3.72;;;18.00;99.90;;;;;;5093376;28;20036;-70
2021/07/08 01:31:50;;;;;;;7.35;3.53;;;17.90;99.90;;;;;;5093147;28;20330;-70
2021/07/08 01:34:16;;;;;;;6.93;3.15;;;17.80;99.90;;;;;;5093238;28;20052;-71
2021/07/08 01:36:42;;;;;;;8.05;3.40;;;17.90;99.90;;;;;;5125351;27;20046;-71
2021/07/08 01:39:08;;;;;;;10.00;3.30;;;17.90;99.90;;;;;;5134797;27;20051;-71
2021/07/08 01:41:33;;;;;;;11.27;3.08;;;17.90;99.90;;;;;;5134057;27;20472;-71
2021/07/08 01:44:00;;;;;;;4.97;2.90;;;18.00;99.90;;;;;;5115961;27;20038;-71
2021/07/08 01:46:26;;;;;;;4.80;3.08;;;18.00;99.90;;;;;;5133924;27;20422;-71
2021/07/08 01:48:52;;;;;;;7.70;3.10;;;18.00;99.90;;;;;;5134319;27;20016;-71
2021/07/08 01:51:22;;;;;;;9.70;3.20;;;17.90;99.90;;;;;;5116134;27;20041;-71
2021/07/08 01:53:49;;;;;;;9.38;3.10;;;18.00;99.90;;;;;;5115367;27;20460;-70
2021/07/08 01:56:15;;;;;;;5.47;2.90;;;18.00;99.90;;;;;;5133898;27;20461;-73
2021/07/08 01:58:40;;;;;;;8.60;3.25;;;18.00;99.90;;;;;;5133797;27;20111;-72
2021/07/08 02:01:06;;;;;;;5.30;2.75;;;18.00;99.90;;;;;;5115689;27;20146;-72
2021/07/08 02:03:32;;;;;;;12.45;3.03;;;18.00;99.90;;;;;;5133639;27;20412;-72
2021/07/08 02:05:57;;;;;;;7.22;3.17;;;18.00;99.90;;;;;;5134189;27;20053;-72
2021/07/08 02:08:23;;;;;;;9.90;3.33;;;18.00;99.90;;;;;;5115719;27;20440;-71
2021/07/08 02:10:49;;;;;;;10.65;3.33;;;18.00;99.90;;;;;;5133447;27;20057;-71
2021/07/08 02:13:14;;;;;;;5.60;3.30;;;18.00;99.90;;;;;;5133725;27;20084;-71
2021/07/08 02:15:40;;;;;;;16.27;3.30;;;18.00;99.90;;;;;;5133507;27;20031;-71
2021/07/08 02:18:06;;;;;;;9.55;3.90;;;18.00;99.90;;;;;;5134369;27;20080;-72
2021/07/08 02:20:32;;;;;;;4.43;2.83;;;18.00;99.90;;;;;;5133482;27;20446;-71
2021/07/08 02:22:58;;;;;;;5.75;3.28;;;17.90;99.90;;;;;;5133287;27;20057;-73
2021/07/08 02:25:24;;;;;;;6.38;2.85;;;18.00;99.90;;;;;;5115183;27;20041;-71
2021/07/08 02:27:49;;;;;;;7.57;3.30;;;18.00;99.90;;;;;;5114804;27;20122;-73
2021/07/08 02:30:18;;;;;;;5.97;2.90;;;18.00;99.90;;;;;;5133699;27;20064;-71
2021/07/08 02:32:45;;;;;;;6.20;2.88;;;18.00;99.90;;;;;;5133085;27;20033;-71
2021/07/08 02:35:12;;;;;;;8.93;3.13;;;18.00;99.90;;;;;;5133122;27;20019;-72
2021/07/08 02:37:38;;;;;;;10.65;3.40;;;18.00;99.90;;;;;;5132766;27;20142;-71
2021/07/08 02:40:13;;;;;;;8.50;3.30;;;18.00;99.90;;;;;;5114584;27;20536;-72
2021/07/08 02:42:40;;;;;;;7.25;2.90;;;18.00;99.90;;;;;;5133097;27;20066;-71
2021/07/08 02:45:07;;;;;;;10.52;3.17;;;18.00;99.90;;;;;;5115420;27;20627;-71
2021/07/08 02:47:33;;;;;;;8.35;2.65;;;18.00;99.90;;;;;;5132735;27;20031;-71
2021/07/08 02:49:59;;;;;;;7.55;2.97;;;18.10;99.90;;;;;;5114905;27;20039;-71
2021/07/08 02:52:25;;;;;;;5.10;2.40;;;18.10;99.90;;;;;;5132856;27;20360;-70
2021/07/08 02:54:50;;;;;;;9.85;2.90;;;18.10;99.90;;;;;;5114797;27;20341;-71
2021/07/08 02:57:16;;;;;;;7.95;3.10;;;18.10;99.90;;;;;;5132934;27;20098;-71
2021/07/08 02:59:41;;;;;;;5.43;3.22;;;18.10;99.90;;;;;;5133065;27;20099;-71
2021/07/08 03:02:07;;;;;;;4.35;2.55;;;18.10;99.90;;;;;;5114668;27;20077;-72
2021/07/08 03:04:32;;;;;;;7.63;3.60;;;18.10;99.90;;;;;;5132095;27;20088;-72
2021/07/08 03:06:58;;;;;;;9.00;3.17;;;18.10;99.90;;;;;;5132395;27;20420;-72
2021/07/08 03:09:24;;;;;;;10.52;3.03;;;18.10;99.90;;;;;;5132955;27;20023;-72
2021/07/08 03:11:49;;;;;;;8.73;2.72;;;18.10;99.90;;;;;;5132463;27;20453;-72
2021/07/08 03:14:15;;;;;;;6.38;2.63;;;18.20;99.90;;;;;;5132371;27;20054;-72
2021/07/08 03:16:41;;;;;;;7.13;3.00;;;18.10;99.90;;;;;;5132557;27;20031;-71
2021/07/08 03:19:06;;;;;;;7.03;3.03;;;18.20;99.90;;;;;;5132563;27;20110;-72
2021/07/08 03:21:32;;;;;;;8.25;3.13;;;18.20;99.90;;;;;;5132296;27;20046;-72
2021/07/08 03:23:58;;;;;;;7.82;3.00;;;18.10;99.90;;;;;;5132579;27;20019;-73
2021/07/08 03:26:23;;;;;;;10.32;3.47;;;18.20;99.90;;;;;;5132194;27;20047;-71
2021/07/08 03:28:49;;;;;;;6.35;2.90;;;18.20;99.90;;;;;;5114356;27;20043;-71
2021/07/08 03:31:15;;;;;;;6.18;2.70;;;18.10;99.90;;;;;;5131985;27;20157;-71
2021/07/08 03:33:41;;;;;;;5.10;2.95;;;18.10;99.90;;;;;;5132093;27;20425;-71
2021/07/08 03:36:06;;;;;;;6.60;3.10;;;18.10;99.90;;;;;;5132493;27;20020;-71
2021/07/08 03:38:32;;;;;;;7.60;2.97;;;18.10;99.90;;;;;;5132075;27;20037;-72
2021/07/08 03:40:58;;;;;;;11.35;3.05;;;18.00;99.90;;;;;;5131726;27;20384;-72
2021/07/08 03:43:24;;;;;;;6.93;2.88;;;18.00;99.90;;;;;;5131921;27;20046;-72
2021/07/08 03:45:49;;;;;;;4.85;2.50;;;18.00;99.90;;;;;;5131657;27;20030;-71
2021/07/08 03:48:15;;;;;;;5.55;2.60;;;18.00;99.90;;;;;;5131989;27;20031;-71
2021/07/08 03:50:41;;;;;;;7.38;2.67;;;18.00;99.90;;;;;;5131852;27;20038;-72
2021/07/08 03:53:07;;;;;;;4.97;2.53;;;18.20;99.90;;;;;;5131849;27;20038;-71
2021/07/08 03:55:32;;;;;;;5.18;2.85;;;18.10;99.90;;;;;;5131959;27;20024;-71
2021/07/08 03:57:58;;;;;;;8.02;2.63;;;18.10;99.90;;;;;;5131618;27;20110;-71
2021/07/08 04:00:39;;;;;;;7.13;3.40;;;18.10;99.90;;;;;;5113871;27;20388;-71
2021/07/08 04:03:16;;;;;;;12.18;3.63;;;18.10;99.90;;;;;;5131642;27;20088;-72
2021/07/08 04:05:44;;;;;;;9.10;3.45;;;18.10;99.90;;;;;;5113274;28;20035;-71
2021/07/08 04:08:10;;;;;;;;;;;18.20;99.90;;;;;;5132046;28;20376;-72
2021/07/08 04:10:37;;;;;;;7.35;3.30;;;18.30;99.90;;;;;;5113007;28;19947;-71
2021/07/08 04:13:09;;;;;;;7.25;3.33;;;18.20;99.90;;;;;;5131491;28;20261;-70
2021/07/08 04:15:35;;;;;;;6.57;3.05;;;18.20;99.90;;;;;;5131728;27;20034;-72
2021/07/08 04:18:02;;;;;;;5.47;3.20;;;18.30;99.90;;;;;;5135693;27;20020;-71
2021/07/08 04:20:28;;;;;;;6.13;3.38;;;18.20;99.90;;;;;;5135658;27;20465;-73
2021/07/08 04:22:54;;;;;;;8.15;2.83;;;18.30;99.90;;;;;;5135773;27;20031;-72
2021/07/08 04:25:19;;;;;;;6.43;2.72;;;18.30;99.90;;;;;;5135843;27;20058;-71
2021/07/08 04:27:46;;;;;;;4.53;2.72;;;18.40;99.90;;;;;;5117134;27;20353;-71
2021/07/08 04:30:15;;;;;;;10.05;3.30;;;18.30;99.90;;;;;;5136365;27;20438;-71
2021/07/08 04:32:41;;;;;;;6.65;3.42;;;18.30;99.90;;;;;;5135523;27;20016;-71
2021/07/08 04:35:09;;;;;;;8.65;3.72;;;18.40;99.90;;;;;;5117066;27;20201;-71
2021/07/08 04:37:40;;;;;;;7.93;2.80;;;18.40;99.90;;;;;;5135289;27;20338;-73
2021/07/08 04:40:08;;;;;;;8.82;3.55;;;18.50;99.90;;;;;;5135110;27;20548;-71
2021/07/08 04:42:34;;;;;;;4.35;3.22;;;18.50;99.90;;;;;;5135238;27;20056;-72
2021/07/08 04:44:59;;;;;;;6.53;3.08;;;18.50;99.90;;;;;;5135602;27;20019;-71
2021/07/08 04:47:25;;;;;;;9.30;4.20;;;18.50;99.90;;;;;;5135043;27;20499;-71
2021/07/08 04:49:50;;;;;;;10.52;3.60;;;18.50;99.90;;;;;;5134943;27;20141;-71
2021/07/08 04:52:16;;;;;;;14.95;4.25;;;18.60;99.90;;;;;;5134877;27;20019;-71
2021/07/08 04:54:41;;;;;;;6.60;3.50;;;18.60;99.90;;;;;;5134824;27;20023;-70
2021/07/08 04:57:07;;;;;;;7.80;3.22;;;18.70;99.90;;;;;;5135683;27;20038;-72
2021/07/08 04:59:33;;;;;;;8.88;3.22;;;18.70;99.90;;;;;;5116794;27;20038;-71
2021/07/08 05:01:58;;;;;;;10.95;3.35;;;18.60;99.90;;;;;;5135029;27;20035;-72
2021/07/08 05:04:24;;;;;;;5.40;2.92;;;18.60;99.90;;;;;;5134933;27;20031;-71
2021/07/08 05:06:49;;;;;;;5.13;3.35;;;18.60;99.90;;;;;;5134517;27;20123;-71
2021/07/08 05:09:15;;;;;;;5.80;3.25;;;18.70;99.90;;;;;;5135108;27;20068;-71
2021/07/08 05:11:42;;;;;;;6.82;3.53;;;18.70;99.90;;;;;;5135084;27;20054;-71
2021/07/08 05:14:08;;;;;;;7.13;3.45;;;18.70;99.90;;;;;;5134263;27;20057;-73
2021/07/08 05:16:34;;;;;;;12.82;3.25;;;18.70;99.90;;;;;;5134771;27;20050;-71
2021/07/08 05:18:59;;;;;;;7.53;3.85;;;18.70;99.90;;;;;;5134422;27;20023;-71
2021/07/08 05:21:25;;;;;;;9.00;3.70;;;18.70;99.90;;;;;;5134762;27;20030;-72
2021/07/08 05:23:53;;;;;;;10.52;3.40;;;18.80;99.90;;;;;;5116183;27;20024;-73
2021/07/08 05:26:18;;;;;;;8.98;3.22;;;18.90;99.90;;;;;;5134386;27;20054;-73
2021/07/08 05:28:44;;;;;;;6.30;2.92;;;18.90;99.90;;;;;;5133002;27;20031;-73
2021/07/08 05:31:09;;;;;;;10.07;3.67;;;19.00;99.90;;;;;;5134261;27;20338;-73
2021/07/08 05:33:35;;;;;;;16.15;3.55;;;19.10;99.90;;;;;;5134082;27;20054;-74
2021/07/08 05:36:00;;;;;;;5.38;3.22;;;19.10;99.90;;;;;;5134349;27;20034;-72
2021/07/08 05:38:26;;;;;;;13.25;3.70;;;19.10;99.90;;;;;;5134003;27;20039;-72
2021/07/08 05:40:52;;;;;;;7.82;3.33;;;19.20;99.90;;;;;;5133807;27;20035;-73
2021/07/08 05:43:17;;;;;;;6.25;3.05;;;19.30;99.90;;;;;;5115823;27;20035;-73
2021/07/08 05:45:43;;;;;;;12.20;3.35;;;19.30;99.90;;;;;;5133687;27;20019;-73
2021/07/08 05:48:08;;;;;;;5.07;2.90;;;19.40;99.90;;;;;;5115815;27;20055;-72
2021/07/08 05:50:34;;;;;;;12.82;3.63;;;19.40;99.90;;;;;;5133949;27;20485;-73
2021/07/08 05:53:00;;;;;;;10.10;3.40;;;19.40;99.90;;;;;;5133959;27;20027;-72
2021/07/08 05:55:25;;;;;;;11.13;3.70;;;19.50;99.90;;;;;;5133873;27;20066;-73
2021/07/08 05:57:51;;;;;;;11.05;3.65;;;19.60;99.90;;;;;;5115292;27;20092;-72
2021/07/08 06:00:18;;;;;;;11.68;3.58;;;19.70;99.90;;;;;;5134329;27;20050;-74
2021/07/08 06:02:44;;;;;;;9.93;3.85;;;19.80;99.90;;;;;;5115413;27;20042;-72
2021/07/08 06:05:11;;;;;;;15.73;4.60;;;19.80;99.90;;;;;;5115216;27;20037;-71
2021/07/08 06:07:36;;;;;;;14.15;4.45;;;19.90;99.90;;;;;;5133431;27;20039;-71
2021/07/08 06:10:07;;;;;;;9.70;4.10;;;19.90;99.90;;;;;;5096909;27;20035;-74
2021/07/08 06:12:34;;;;;;;12.02;4.45;;;19.90;99.90;;;;;;5091459;28;20412;-72
2021/07/08 06:14:59;;;;;;;9.13;4.07;;;20.10;99.90;;;;;;5091355;28;20062;-72
2021/07/08 06:17:25;;;;;;;9.75;4.32;;;20.10;99.90;;;;;;5092646;28;20032;-71
2021/07/08 06:19:51;;;;;;;9.68;4.15;;;20.20;99.90;;;;;;5091975;28;20028;-72
2021/07/08 06:22:16;;;;;;;21.38;4.85;;;20.30;99.90;;;;;;5091352;28;20092;-73
2021/07/08 06:24:43;;;;;;;14.38;4.18;;;20.40;99.90;;;;;;5091685;28;20028;-72
2021/07/08 06:27:09;;;;;;;7.85;3.83;;;20.50;99.90;;;;;;5093138;28;20505;-72
2021/07/08 06:29:35;;;;;;;13.43;4.25;;;20.60;99.90;;;;;;5091790;28;20028;-73
2021/07/08 06:32:01;;;;;;;13.60;4.25;;;20.60;99.90;;;;;;5091839;28;20024;-72
2021/07/08 06:34:26;;;;;;;12.52;3.25;;;20.70;99.90;;;;;;5091780;28;20473;-72
2021/07/08 06:36:52;;;;;;;17.73;4.35;;;20.70;99.90;;;;;;5091821;28;20115;-73
2021/07/08 06:39:17;;;;;;;10.77;3.92;;;20.80;99.90;;;;;;5081647;28;20078;-72
2021/07/08 06:41:43;;;;;;;5.80;3.45;;;20.70;99.90;;;;;;5051701;28;20112;-73
2021/07/08 06:44:09;;;;;;;11.48;3.80;;;20.70;99.90;;;;;;5051577;28;20419;-72
2021/07/08 06:46:34;;;;;;;11.80;3.53;;;20.80;99.90;;;;;;5051797;28;20120;-73
2021/07/08 06:49:00;;;;;;;9.75;3.90;;;20.90;99.90;;;;;;5051800;28;20390;-72
2021/07/08 06:51:27;;;;;;;15.77;4.70;;;20.90;99.90;;;;;;5067780;28;20108;-72
2021/07/08 06:53:54;;;;;;;8.02;4.35;;;20.90;99.90;;;;;;5051696;28;20025;-72
2021/07/08 06:56:20;;;;;;;15.45;4.70;;;21.00;99.90;;;;;;5051489;28;20044;-73
2021/07/08 06:58:46;;;;;;;12.82;4.35;;;21.00;99.90;;;;;;5051408;28;20466;-73
2021/07/08 07:01:12;;;;;;;7.57;3.60;;;21.10;99.90;;;;;;5051648;28;20036;-73
2021/07/08 07:03:38;;;;;;;8.75;3.83;;;21.10;99.90;;;;;;5051248;28;20032;-73
2021/07/08 07:06:04;;;;;;;9.90;3.45;;;21.10;99.90;;;;;;5051753;28;20025;-71
2021/07/08 07:08:30;;;;;;;8.93;3.72;;;21.10;99.90;;;;;;5051329;28;20041;-73
2021/07/08 07:10:56;;;;;;;8.88;2.78;;;21.20;99.90;;;;;;5051426;28;20029;-73
2021/07/08 07:13:22;;;;;;;6.07;2.60;;;21.20;99.90;;;;;;5051098;28;20036;-72
2021/07/08 07:15:48;;;;;;;10.98;4.55;;;21.30;99.90;;;;;;5051415;28;20437;-73
2021/07/08 07:18:13;;;;;;;11.98;3.65;;;21.30;99.90;;;;;;5052018;28;20099;-72
2021/07/08 07:20:39;;;;;;;7.57;3.40;;;21.30;99.90;;;;;;5051371;28;20104;-74
2021/07/08 07:23:05;;;;;;;15.40;3.30;;;21.30;99.90;;;;;;5050919;28;20426;-72
2021/07/08 07:25:31;;;;;;;9.38;4.53;;;21.40;99.90;;;;;;5050955;28;20025;-73
2021/07/08 07:27:57;;;;;;;12.40;4.18;;;21.60;99.90;;;;;;5051213;28;20384;-73
2021/07/08 07:30:25;;;;;;;15.48;3.58;;;21.60;99.90;;;;;;5050988;28;20063;-73
2021/07/08 07:32:51;;;;;;;;;;;21.70;99.60;;;;;;5051290;28;20486;-73
2021/07/08 07:35:17;;;;;;;7.93;3.00;;;21.70;99.40;;;;;;5050856;28;19986;-73
2021/07/08 07:37:43;;;;;;;10.10;3.30;;;21.70;99.50;;;;;;5050642;28;20133;-73
2021/07/08 07:40:10;;;;;;;11.77;3.42;;;21.70;99.60;;;;;;5076073;28;20505;-72
2021/07/08 07:42:36;;;;;;;12.27;3.42;;;21.80;99.70;;;;;;5090756;28;20474;-71
2021/07/08 07:45:07;;;;;;;9.32;3.45;;;22.00;99.70;;;;;;5073495;28;20024;-72
2021/07/08 07:47:33;;;;;;;8.02;3.47;;;22.10;99.50;;;;;;5090742;28;20047;-71
2021/07/08 07:49:59;;;;;;;12.80;3.67;;;22.20;98.90;;;;;;5090527;28;20080;-72
2021/07/08 07:52:25;;;;;;;8.23;3.17;;;22.20;98.80;;;;;;5089877;28;20021;-71
2021/07/08 07:54:51;;;;;;;9.43;3.53;;;22.30;98.40;;;;;;5090691;28;20552;-71
2021/07/08 07:57:16;;;;;;;8.25;3.42;;;22.40;98.70;;;;;;5091437;28;20102;-71
2021/07/08 07:59:42;;;;;;;9.57;3.60;;;22.50;99.10;;;;;;5090864;28;20029;-72
2021/07/08 08:02:11;;;;;;;8.25;3.47;;;22.70;99.20;;;;;;5090300;28;20024;-72
2021/07/08 08:04:42;;;;;;;7.45;3.33;;;22.80;99.20;;;;;;5090495;28;20036;-71
2021/07/08 08:09:52;;;;;;;8.88;3.80;;;23.00;98.20;;;;;;5090647;28;20039;-73
2021/07/08 08:12:18;;;;;;;15.43;3.35;;;23.10;97.90;;;;;;5090699;28;20032;-72
2021/07/08 08:14:44;;;;;;;9.27;3.22;;;23.00;97.50;;;;;;5089359;28;20032;-72
2021/07/08 08:17:09;;;;;;;13.90;4.25;;;23.00;96.70;;;;;;5090321;28;20371;-72
2021/07/08 08:19:35;;;;;;;9.85;3.55;;;22.90;97.20;;;;;;5090952;28;20640;-73
2021/07/08 08:22:01;;;;;;;8.48;3.20;;;22.90;97.10;;;;;;5090507;28;20124;-70
2021/07/08 08:24:26;;;;;;;11.63;3.55;;;22.90;97.10;;;;;;5091391;28;20125;-72
2021/07/08 08:26:52;;;;;;;13.90;4.20;;;23.10;97.00;;;;;;5072314;28;20450;-72
2021/07/08 08:29:20;;;;;;;12.38;3.25;;;23.10;97.00;;;;;;5090187;28;20039;-70
2021/07/08 08:31:46;;;;;;;15.48;3.28;;;23.00;97.10;;;;;;5090679;28;20024;-71
2021/07/08 08:34:13;;;;;;;9.82;3.25;;;23.10;97.30;;;;;;5090296;28;20035;-71
2021/07/08 08:36:38;;;;;;;13.57;3.47;;;23.30;97.50;;;;;;5087648;28;20084;-71
2021/07/08 08:39:04;;;;;;;7.78;3.38;;;23.40;96.90;;;;;;5090615;28;20044;-71
2021/07/08 08:41:34;;;;;;;8.10;2.97;;;23.40;96.20;;;;;;5090259;28;20369;-71
2021/07/08 08:44:00;;;;;;;10.88;3.72;;;23.40;96.10;;;;;;5090324;28;20033;-71
2021/07/08 08:46:26;;;;;;;14.50;3.88;;;23.50;96.90;;;;;;5090069;28;20139;-72
2021/07/08 08:48:51;;;;;;;12.30;3.55;;;23.60;97.30;;;;;;5090282;28;20032;-70
2021/07/08 08:51:17;;;;;;;8.27;3.58;;;23.60;96.80;;;;;;5090472;28;20017;-72
2021/07/08 08:53:43;;;;;;;9.88;3.70;;;23.60;97.00;;;;;;5090055;28;20017;-72
2021/07/08 08:56:09;;;;;;;10.30;3.13;;;23.60;97.00;;;;;;5090401;28;20043;-71
2021/07/08 08:58:36;;;;;;;12.25;3.03;;;23.90;96.80;;;;;;5090199;28;20032;-72
2021/07/08 09:01:05;;;;;;;8.98;3.03;;;24.10;96.50;;;;;;5090327;28;20111;-71
2021/07/08 09:03:33;;;;;;;10.52;3.40;;;24.20;96.30;;;;;;5092506;28;20031;-72
2021/07/08 09:06:11;;;;;;;7.18;2.78;;;24.20;96.00;;;;;;5093491;28;20024;-71
2021/07/08 09:08:38;;;;;;;12.80;3.03;;;24.40;96.70;;;;;;5093808;28;20036;-72
2021/07/08 09:11:15;;;;;;;10.48;3.45;;;24.60;96.50;;;;;;5093517;28;20031;-72
2021/07/08 09:14:01;;;;;;;10.23;3.28;;;24.70;96.10;;;;;;5093668;28;20055;-71
2021/07/08 09:16:28;;;;;;;12.95;3.40;;;24.70;95.90;;;;;;5093753;28;20032;-71
2021/07/08 09:19:03;;;;;;;7.73;3.13;;;24.70;95.80;;;;;;5093658;28;20043;-71
2021/07/08 09:21:30;;;;;;;10.10;2.90;;;24.80;95.60;;;;;;5094268;28;20024;-72
2021/07/08 09:24:14;;;;;;;9.88;2.85;;;24.90;95.30;;;;;;5093522;28;20055;-71
2021/07/08 09:26:43;;;;;;;9.00;2.65;;;24.80;95.60;;;;;;5093424;28;20036;-71
2021/07/08 09:29:15;;;;;;;9.65;2.55;;;24.70;95.50;;;;;;5093951;28;20124;-71
2021/07/08 09:31:46;;;;;;;9.40;3.40;;;24.70;95.10;;;;;;5093963;28;20559;-71
2021/07/08 09:34:24;;;;;;;9.40;3.08;;;24.80;95.40;;;;;;5092925;28;20107;-71
2021/07/08 09:37:01;;;;;;;9.07;2.55;;;24.80;95.10;;;;;;5093083;28;20020;-71
2021/07/08 09:39:36;;;;;;;13.48;3.10;;;24.70;94.90;;;;;;5093436;28;20048;-71
2021/07/08 09:42:02;;;;;;;9.00;3.25;;;24.90;94.90;;;;;;5093203;28;20044;-72
2021/07/08 09:44:28;;;;;;;8.63;2.60;;;24.80;94.70;;;;;;5092967;28;20401;-71
2021/07/08 09:46:56;;;;;;;11.40;2.83;;;24.70;95.10;;;;;;5092901;28;20039;-71
2021/07/08 09:49:22;;;;;;;8.52;2.88;;;24.60;94.80;;;;;;5092923;28;20393;-72
2021/07/08 09:51:48;;;;;;;9.77;3.00;;;24.70;94.70;;;;;;5092712;28;20323;-71
2021/07/08 09:54:20;;;;;;;10.68;3.47;;;24.70;94.80;;;;;;5093341;28;20483;-73
2021/07/08 09:56:49;;;;;;;6.80;2.92;;;24.60;94.80;;;;;;5090952;28;20335;-71
2021/07/08 09:59:20;;;;;;;12.15;2.83;;;24.70;95.00;;;;;;5093025;28;20189;-72
2021/07/08 10:01:56;;;;;;;10.23;3.38;;;24.90;95.10;;;;;;5092743;28;20047;-71
2021/07/08 10:04:23;;;;;;;14.40;3.55;;;24.90;94.80;;;;;;5092901;28;20448;-73
2021/07/08 10:06:48;;;;;;;15.05;4.13;;;25.20;95.00;;;;;;5092705;28;20036;-72
2021/07/08 10:09:19;;;;;;;10.82;3.90;;;25.20;94.60;;;;;;5093065;28;20039;-71
2021/07/08 10:11:55;;;;;;;18.50;3.80;;;25.30;94.50;;;;;;5092887;28;20450;-70
2021/07/08 10:14:22;;;;;;;11.00;4.22;;;25.40;93.80;;;;;;5073633;28;20032;-70
2021/07/08 10:16:50;;;;;;;14.55;3.85;;;25.30;93.60;;;;;;5090665;28;20044;-72
2021/07/08 10:19:19;;;;;;;11.35;4.10;;;25.40;93.40;;;;;;5092010;28;20043;-72
2021/07/08 10:21:47;;;;;;;9.10;3.00;;;25.50;93.60;;;;;;5092183;28;20024;-72
2021/07/08 10:24:14;;;;;;;11.55;3.30;;;25.80;93.10;;;;;;5092978;28;20059;-72
2021/07/08 10:26:40;;;;;;;9.77;3.60;;;25.80;92.50;;;;;;5074661;28;20039;-72
2021/07/08 10:29:08;;;;;;;11.50;3.15;;;25.60;92.50;;;;;;5092303;28;20526;-70
2021/07/08 10:31:35;;;;;;;18.08;4.60;;;25.70;92.90;;;;;;5091104;28;20032;-71
2021/07/08 10:34:13;;;;;;;14.25;3.78;;;26.00;92.50;;;;;;5092399;28;20449;-72
2021/07/08 10:36:51;;;;;;;10.32;3.38;;;26.30;92.10;;;;;;5092122;28;20036;-73
2021/07/08 10:39:21;;;;;;;;;;;26.40;91.70;;;;;;5092434;28;20040;-73
2021/07/08 10:41:54;;;;;;;12.75;4.05;;;26.60;91.40;;;;;;5092101;28;19915;-73
2021/07/08 10:44:39;;;;;;;12.15;3.90;;;26.70;91.00;;;;;;5092133;28;20473;-72
2021/07/08 10:47:06;;;;;;;10.00;3.40;;;26.60;91.00;;;;;;5091802;28;20024;-72
2021/07/08 10:49:37;;;;;;;14.88;3.75;;;26.60;91.10;;;;;;5092336;28;20034;-72
2021/07/08 10:52:03;;;;;;;10.55;4.38;;;26.60;90.80;;;;;;5074132;28;20035;-72
2021/07/08 10:54:30;;;;;;;9.13;3.40;;;26.60;90.90;;;;;;5092103;28;20036;-71
2021/07/08 10:56:58;;;;;;;18.15;3.50;;;26.80;90.90;;;;;;5091025;28;20067;-71
2021/07/08 10:59:42;;;;;;;15.07;3.10;;;26.80;90.50;;;;;;5091922;28;20032;-72
2021/07/08 11:02:08;;;;;;;15.75;3.53;;;26.90;90.50;;;;;;5091713;28;20052;-71
2021/07/08 11:04:48;;;;;;;7.88;2.72;;;27.00;90.30;;;;;;5091527;28;20115;-71
2021/07/08 11:07:21;;;;;;;10.43;3.35;;;27.10;90.00;;;;;;5091330;28;20064;-71
2021/07/08 11:10:02;;;;;;;13.80;2.70;;;27.40;89.60;;;;;;5091789;28;20044;-71
2021/07/08 11:12:35;;;;;;;10.65;2.65;;;27.40;89.20;;;;;;5091696;28;20024;-71
2021/07/08 11:15:05;;;;;;;7.18;2.40;;;27.60;90.30;;;;;;5073892;28;20097;-71
2021/07/08 11:17:39;;;;;;;6.13;2.95;;;27.60;86.90;;;;;;5091455;28;20061;-73
2021/07/08 11:20:29;;;;;;;8.68;3.42;;;27.30;86.20;;;;;;5091192;28;20453;-71
2021/07/08 11:22:56;;;;;;;6.45;2.35;;;27.30;86.30;;;;;;5091190;28;20032;-72
2021/07/08 11:25:40;;;;;;;16.45;3.65;;;27.40;87.30;;;;;;5090928;28;20290;-71
2021/07/08 11:28:41;;;;;;;7.97;2.83;;;27.50;87.40;;;;;;5091144;28;20123;-72
2021/07/08 11:31:08;;;;;;;12.30;2.90;;;27.70;86.90;;;;;;5009131;28;20435;-71
2021/07/08 11:33:39;;;;;;;10.00;2.55;;;27.80;87.50;;;;;;5074466;28;20613;-73
2021/07/08 11:36:11;;;;;;;14.50;2.53;;;27.80;86.50;;;;;;5091206;28;20023;-72
2021/07/08 11:38:43;;;;;;;5.80;2.20;;;27.70;85.60;;;;;;5089783;28;20024;-71
2021/07/08 11:41:10;;;;;;;10.63;2.13;;;27.80;85.10;;;;;;5090788;28;20047;-71
2021/07/08 11:43:38;;;;;;;7.63;2.45;;;27.90;84.80;;;;;;5090929;28;20035;-72
2021/07/08 11:46:11;;;;;;;8.45;2.40;;;27.90;83.30;;;;;;5090774;28;20119;-72
2021/07/08 11:48:47;;;;;;;8.80;2.10;;;27.80;84.20;;;;;;5090326;28;20465;-71
2021/07/08 11:51:18;;;;;;;5.85;1.90;;;27.80;83.10;;;;;;5091372;28;20390;-71
2021/07/08 11:53:45;;;;;;;11.05;2.75;;;27.90;83.10;;;;;;5090627;28;20020;-72
2021/07/08 11:56:11;;;;;;;6.67;2.40;;;27.90;82.10;;;;;;5090861;28;20020;-70
2021/07/08 11:58:37;;;;;;;10.18;2.65;;;27.90;81.40;;;;;;5091084;28;20028;-72
2021/07/08 12:01:08;;;;;;;12.45;2.47;;;28.00;81.60;;;;;;5089554;28;20111;-71
2021/07/08 12:03:40;;;;;;;9.48;2.35;;;27.90;79.80;;;;;;5090104;28;20099;-73
2021/07/08 12:06:17;;;;;;;6.18;2.15;;;27.70;78.60;;;;;;5091089;28;20020;-71
2021/07/08 12:08:51;;;;;;;9.85;2.22;;;27.60;78.60;;;;;;5090313;28;20415;-70
2021/07/08 12:11:24;;;;;;;7.53;2.05;;;27.40;79.50;;;;;;5090363;28;20032;-71
2021/07/08 12:13:55;;;;;;;4.90;1.77;;;27.50;80.20;;;;;;5089357;28;20052;-71
2021/07/08 12:16:35;;;;;;;6.90;2.28;;;27.60;80.50;;;;;;5090485;28;20024;-72
2021/07/08 12:19:06;;;;;;;4.30;1.65;;;27.50;79.30;;;;;;5089194;28;20476;-72
2021/07/08 12:21:36;;;;;;;6.05;1.55;;;27.40;78.30;;;;;;5090366;28;20059;-71
2021/07/08 12:24:08;;;;;;;6.13;2.05;;;27.30;80.30;;;;;;5090942;28;20031;-71
2021/07/08 12:26:35;;;;;;;7.30;2.08;;;27.30;80.50;;;;;;5090192;28;20085;-71
2021/07/08 12:29:21;;;;;;;4.83;2.20;;;27.20;79.40;;;;;;5090643;28;20028;-71
2021/07/08 12:31:46;;;;;;;8.48;2.28;;;27.30;79.50;;;;;;5089446;28;20081;-73
2021/07/08 12:34:12;;;;;;;6.68;1.90;;;27.40;80.60;;;;;;5090369;28;20028;-72
2021/07/08 12:36:38;;;;;;;8.68;2.33;;;27.50;79.90;;;;;;5091108;28;20016;-70
2021/07/08 12:39:05;;;;;;;8.10;2.30;;;27.50;80.40;;;;;;5094641;28;20544;-71
2021/07/08 12:41:31;;;;;;;7.50;2.33;;;27.30;77.70;;;;;;5094624;28;20107;-71
2021/07/08 12:43:57;;;;;;;7.13;1.85;;;27.30;79.40;;;;;;5094215;28;20113;-72
2021/07/08 12:46:29;;;;;;;14.73;2.28;;;27.40;78.00;;;;;;5094468;28;20449;-71
2021/07/08 12:48:55;;;;;;;8.68;2.13;;;27.40;77.30;;;;;;5094003;28;20043;-71